sensor_id;sensor_type;location;lat;lon;timestamp;P1;durP1;ratioP1;P2;durP2;ratioP2
44102;SDS011;29769;42.178;24.742;2024-01-16T00:01:06;14.07;;;2.42;;
44102;SDS011;29769;42.178;24.742;2024-01-16T00:03:51;3.15;;;2.53;;
44102;SDS011;29769;42.178;24.742;2024-01-16T00:06:42;1.88;;;1.77;;
44102;SDS011;29769;42.178;24.742;2024-01-16T00:09:27;6.28;;;2.85;;
44102;SDS011;29769;42.178;24.742;2024-01-16T00:12:12;1.42;;;1.38;;
44102;SDS011;29769;42.178;24.742;2024-01-16T00:14:57;6.57;;;4.43;;
44102;SDS011;29769;42.178;24.742;2024-01-16T00:17:42;2.33;;;2.13;;
44102;SDS011;29769;42.178;24.742;2024-01-16T00:20:27;1.42;;;1.10;;
44102;SDS011;29769;42.178;24.742;2024-01-16T00:23:12;6.03;;;3.30;;
44102;SDS011;29769;42.178;24.742;2024-01-16T00:25:57;2.42;;;1.63;;
44102;SDS011;29769;42.178;24.742;2024-01-16T00:28:42;8.70;;;3.53;;
44102;SDS011;29769;42.178;24.742;2024-01-16T00:31:27;2.30;;;1.95;;
44102;SDS011;29769;42.178;24.742;2024-01-16T00:34:12;1.15;;;1.15;;
44102;SDS011;29769;42.178;24.742;2024-01-16T00:36:57;3.33;;;3.03;;
44102;SDS011;29769;42.178;24.742;2024-01-16T00:39:42;6.75;;;4.30;;
44102;SDS011;29769;42.178;24.742;2024-01-16T00:42:27;3.33;;;1.55;;
44102;SDS011;29769;42.178;24.742;2024-01-16T00:45:12;5.97;;;4.18;;
44102;SDS011;29769;42.178;24.742;2024-01-16T00:47:57;4.65;;;2.58;;
44102;SDS011;29769;42.178;24.742;2024-01-16T00:50:42;4.85;;;3.40;;
44102;SDS011;29769;42.178;24.742;2024-01-16T00:53:27;1.05;;;1.05;;
44102;SDS011;29769;42.178;24.742;2024-01-16T00:56:12;3.40;;;2.95;;
44102;SDS011;29769;42.178;24.742;2024-01-16T00:58:57;17.45;;;4.05;;
44102;SDS011;29769;42.178;24.742;2024-01-16T01:01:42;3.47;;;3.17;;
44102;SDS011;29769;42.178;24.742;2024-01-16T01:04:27;3.55;;;2.58;;
44102;SDS011;29769;42.178;24.742;2024-01-16T01:07:12;4.38;;;2.47;;
44102;SDS011;29769;42.178;24.742;2024-01-16T01:10:00;3.30;;;3.00;;
44102;SDS011;29769;42.178;24.742;2024-01-16T01:12:45;3.90;;;1.70;;
44102;SDS011;29769;42.178;24.742;2024-01-16T01:15:30;4.13;;;3.70;;
44102;SDS011;29769;42.178;24.742;2024-01-16T01:18:15;4.63;;;2.13;;
44102;SDS011;29769;42.178;24.742;2024-01-16T01:21:00;2.83;;;1.55;;
44102;SDS011;29769;42.178;24.742;2024-01-16T01:23:45;3.63;;;3.40;;
44102;SDS011;29769;42.178;24.742;2024-01-16T01:26:30;5.45;;;3.42;;
44102;SDS011;29769;42.178;24.742;2024-01-16T01:29:15;1.08;;;1.08;;
44102;SDS011;29769;42.178;24.742;2024-01-16T01:32:01;1.95;;;1.85;;
44102;SDS011;29769;42.178;24.742;2024-01-16T01:34:45;3.42;;;2.92;;
44102;SDS011;29769;42.178;24.742;2024-01-16T01:37:30;2.72;;;2.50;;
44102;SDS011;29769;42.178;24.742;2024-01-16T01:40:15;4.85;;;3.70;;
44102;SDS011;29769;42.178;24.742;2024-01-16T01:43:16;8.23;;;1.98;;
44102;SDS011;29769;42.178;24.742;2024-01-16T01:46:16;6.13;;;3.13;;
44102;SDS011;29769;42.178;24.742;2024-01-16T01:49:03;27.48;;;5.65;;
44102;SDS011;29769;42.178;24.742;2024-01-16T01:51:48;6.65;;;3.75;;
44102;SDS011;29769;42.178;24.742;2024-01-16T01:54:35;12.25;;;3.53;;
44102;SDS011;29769;42.178;24.742;2024-01-16T01:57:21;21.92;;;3.15;;
44102;SDS011;29769;42.178;24.742;2024-01-16T02:00:06;2.30;;;2.17;;
44102;SDS011;29769;42.178;24.742;2024-01-16T02:02:57;3.35;;;3.15;;
44102;SDS011;29769;42.178;24.742;2024-01-16T02:05:42;1.83;;;1.77;;
44102;SDS011;29769;42.178;24.742;2024-01-16T02:08:27;8.48;;;4.65;;
44102;SDS011;29769;42.178;24.742;2024-01-16T02:11:12;3.08;;;2.88;;
44102;SDS011;29769;42.178;24.742;2024-01-16T02:13:57;2.95;;;2.75;;
44102;SDS011;29769;42.178;24.742;2024-01-16T02:16:42;3.40;;;3.20;;
44102;SDS011;29769;42.178;24.742;2024-01-16T02:19:29;5.25;;;4.22;;
44102;SDS011;29769;42.178;24.742;2024-01-16T02:22:15;2.08;;;1.13;;
44102;SDS011;29769;42.178;24.742;2024-01-16T02:25:04;5.30;;;2.78;;
44102;SDS011;29769;42.178;24.742;2024-01-16T02:27:49;8.23;;;1.77;;
44102;SDS011;29769;42.178;24.742;2024-01-16T02:30:34;1.00;;;0.98;;
44102;SDS011;29769;42.178;24.742;2024-01-16T02:33:19;4.72;;;3.67;;
44102;SDS011;29769;42.178;24.742;2024-01-16T02:36:04;2.38;;;2.28;;
44102;SDS011;29769;42.178;24.742;2024-01-16T02:38:48;2.63;;;2.53;;
44102;SDS011;29769;42.178;24.742;2024-01-16T02:41:33;1.85;;;1.75;;
44102;SDS011;29769;42.178;24.742;2024-01-16T02:44:18;5.80;;;3.50;;
44102;SDS011;29769;42.178;24.742;2024-01-16T02:47:03;11.57;;;3.83;;
44102;SDS011;29769;42.178;24.742;2024-01-16T02:49:49;3.85;;;3.30;;
44102;SDS011;29769;42.178;24.742;2024-01-16T02:52:34;1.27;;;1.25;;
44102;SDS011;29769;42.178;24.742;2024-01-16T02:55:19;5.78;;;2.42;;
44102;SDS011;29769;42.178;24.742;2024-01-16T02:58:04;1.45;;;1.40;;
44102;SDS011;29769;42.178;24.742;2024-01-16T03:00:49;2.40;;;2.25;;
44102;SDS011;29769;42.178;24.742;2024-01-16T03:03:34;2.30;;;2.10;;
44102;SDS011;29769;42.178;24.742;2024-01-16T03:06:23;1.08;;;1.08;;
44102;SDS011;29769;42.178;24.742;2024-01-16T03:09:08;1.50;;;1.40;;
44102;SDS011;29769;42.178;24.742;2024-01-16T03:11:53;1.83;;;1.73;;
44102;SDS011;29769;42.178;24.742;2024-01-16T03:14:38;3.53;;;2.80;;
44102;SDS011;29769;42.178;24.742;2024-01-16T03:17:23;6.63;;;4.47;;
44102;SDS011;29769;42.178;24.742;2024-01-16T03:20:09;4.05;;;3.33;;
44102;SDS011;29769;42.178;24.742;2024-01-16T03:22:53;2.15;;;2.05;;
44102;SDS011;29769;42.178;24.742;2024-01-16T03:25:38;1.23;;;1.20;;
44102;SDS011;29769;42.178;24.742;2024-01-16T03:28:23;3.05;;;2.55;;
44102;SDS011;29769;42.178;24.742;2024-01-16T03:31:08;3.05;;;2.30;;
44102;SDS011;29769;42.178;24.742;2024-01-16T03:33:53;6.25;;;4.10;;
44102;SDS011;29769;42.178;24.742;2024-01-16T03:36:38;1.20;;;1.20;;
44102;SDS011;29769;42.178;24.742;2024-01-16T03:39:23;2.95;;;2.03;;
44102;SDS011;29769;42.178;24.742;2024-01-16T03:42:08;3.38;;;3.10;;
44102;SDS011;29769;42.178;24.742;2024-01-16T03:44:53;2.70;;;2.50;;
44102;SDS011;29769;42.178;24.742;2024-01-16T03:47:38;2.20;;;2.10;;
44102;SDS011;29769;42.178;24.742;2024-01-16T03:50:23;4.07;;;3.70;;
44102;SDS011;29769;42.178;24.742;2024-01-16T03:53:08;2.20;;;2.10;;
44102;SDS011;29769;42.178;24.742;2024-01-16T03:55:53;2.60;;;2.20;;
44102;SDS011;29769;42.178;24.742;2024-01-16T03:58:39;4.32;;;3.92;;
44102;SDS011;29769;42.178;24.742;2024-01-16T04:01:29;1.20;;;1.13;;
44102;SDS011;29769;42.178;24.742;2024-01-16T04:04:17;2.17;;;1.77;;
44102;SDS011;29769;42.178;24.742;2024-01-16T04:07:02;2.50;;;2.20;;
44102;SDS011;29769;42.178;24.742;2024-01-16T04:09:47;5.32;;;3.30;;
44102;SDS011;29769;42.178;24.742;2024-01-16T04:12:32;2.65;;;2.45;;
44102;SDS011;29769;42.178;24.742;2024-01-16T04:15:17;11.75;;;4.57;;
44102;SDS011;29769;42.178;24.742;2024-01-16T04:18:02;3.15;;;2.15;;
44102;SDS011;29769;42.178;24.742;2024-01-16T04:20:47;1.80;;;1.58;;
44102;SDS011;29769;42.178;24.742;2024-01-16T04:23:32;5.38;;;1.77;;
44102;SDS011;29769;42.178;24.742;2024-01-16T04:26:17;0.93;;;0.93;;
44102;SDS011;29769;42.178;24.742;2024-01-16T04:29:02;4.05;;;3.30;;
44102;SDS011;29769;42.178;24.742;2024-01-16T04:31:47;1.63;;;1.52;;
44102;SDS011;29769;42.178;24.742;2024-01-16T04:34:32;1.73;;;1.50;;
44102;SDS011;29769;42.178;24.742;2024-01-16T04:37:17;1.15;;;1.13;;
44102;SDS011;29769;42.178;24.742;2024-01-16T04:40:02;1.50;;;1.40;;
44102;SDS011;29769;42.178;24.742;2024-01-16T04:42:50;2.13;;;1.98;;
44102;SDS011;29769;42.178;24.742;2024-01-16T04:48:19;3.83;;;2.03;;
44102;SDS011;29769;42.178;24.742;2024-01-16T04:51:04;3.70;;;2.50;;
44102;SDS011;29769;42.178;24.742;2024-01-16T04:53:49;1.70;;;1.38;;
44102;SDS011;29769;42.178;24.742;2024-01-16T04:56:34;3.55;;;3.28;;
44102;SDS011;29769;42.178;24.742;2024-01-16T04:59:19;1.90;;;1.75;;
44102;SDS011;29769;42.178;24.742;2024-01-16T05:02:04;1.35;;;1.27;;
44102;SDS011;29769;42.178;24.742;2024-01-16T05:04:49;2.33;;;2.22;;
44102;SDS011;29769;42.178;24.742;2024-01-16T05:07:36;2.08;;;1.98;;
44102;SDS011;29769;42.178;24.742;2024-01-16T05:10:21;3.50;;;3.00;;
44102;SDS011;29769;42.178;24.742;2024-01-16T05:13:07;5.45;;;2.90;;
44102;SDS011;29769;42.178;24.742;2024-01-16T05:15:52;2.08;;;1.90;;
44102;SDS011;29769;42.178;24.742;2024-01-16T05:18:37;4.95;;;2.92;;
44102;SDS011;29769;42.178;24.742;2024-01-16T05:21:22;3.28;;;2.97;;
44102;SDS011;29769;42.178;24.742;2024-01-16T05:24:07;2.15;;;1.60;;
44102;SDS011;29769;42.178;24.742;2024-01-16T05:26:52;2.65;;;2.45;;
44102;SDS011;29769;42.178;24.742;2024-01-16T05:29:37;5.43;;;1.48;;
44102;SDS011;29769;42.178;24.742;2024-01-16T05:32:25;2.58;;;2.38;;
44102;SDS011;29769;42.178;24.742;2024-01-16T05:35:10;2.08;;;1.98;;
44102;SDS011;29769;42.178;24.742;2024-01-16T05:37:55;1.75;;;1.48;;
44102;SDS011;29769;42.178;24.742;2024-01-16T05:40:41;1.70;;;1.60;;
44102;SDS011;29769;42.178;24.742;2024-01-16T05:43:26;1.60;;;1.50;;
44102;SDS011;29769;42.178;24.742;2024-01-16T05:46:13;9.57;;;4.40;;
44102;SDS011;29769;42.178;24.742;2024-01-16T05:48:57;0.57;;;0.57;;
44102;SDS011;29769;42.178;24.742;2024-01-16T05:51:43;8.77;;;2.50;;
44102;SDS011;29769;42.178;24.742;2024-01-16T05:54:27;18.35;;;1.65;;
44102;SDS011;29769;42.178;24.742;2024-01-16T05:57:13;4.00;;;1.25;;
44102;SDS011;29769;42.178;24.742;2024-01-16T05:59:58;0.10;;;0.10;;
44102;SDS011;29769;42.178;24.742;2024-01-16T06:02:43;2.30;;;2.13;;
44102;SDS011;29769;42.178;24.742;2024-01-16T06:05:29;1.10;;;1.05;;
44102;SDS011;29769;42.178;24.742;2024-01-16T06:08:13;2.10;;;1.90;;
44102;SDS011;29769;42.178;24.742;2024-01-16T06:10:58;1.45;;;1.35;;
44102;SDS011;29769;42.178;24.742;2024-01-16T06:13:43;1.80;;;1.55;;
44102;SDS011;29769;42.178;24.742;2024-01-16T06:16:28;5.07;;;2.80;;
44102;SDS011;29769;42.178;24.742;2024-01-16T06:19:14;3.60;;;2.28;;
44102;SDS011;29769;42.178;24.742;2024-01-16T06:22:00;3.13;;;2.92;;
44102;SDS011;29769;42.178;24.742;2024-01-16T06:24:45;3.92;;;2.33;;
44102;SDS011;29769;42.178;24.742;2024-01-16T06:27:30;1.30;;;1.25;;
44102;SDS011;29769;42.178;24.742;2024-01-16T06:30:15;1.85;;;1.80;;
44102;SDS011;29769;42.178;24.742;2024-01-16T06:33:00;2.22;;;0.85;;
44102;SDS011;29769;42.178;24.742;2024-01-16T06:35:45;5.13;;;2.42;;
44102;SDS011;29769;42.178;24.742;2024-01-16T06:38:30;4.35;;;2.30;;
44102;SDS011;29769;42.178;24.742;2024-01-16T06:41:15;5.13;;;2.47;;
44102;SDS011;29769;42.178;24.742;2024-01-16T06:44:00;6.10;;;1.17;;
44102;SDS011;29769;42.178;24.742;2024-01-16T06:46:45;2.00;;;1.80;;
44102;SDS011;29769;42.178;24.742;2024-01-16T06:49:31;0.77;;;0.77;;
44102;SDS011;29769;42.178;24.742;2024-01-16T06:52:16;0.60;;;0.60;;
44102;SDS011;29769;42.178;24.742;2024-01-16T06:55:01;0.75;;;0.75;;
44102;SDS011;29769;42.178;24.742;2024-01-16T06:57:46;0.45;;;0.38;;
44102;SDS011;29769;42.178;24.742;2024-01-16T07:00:31;1.33;;;1.25;;
44102;SDS011;29769;42.178;24.742;2024-01-16T07:06:01;0.20;;;0.20;;
44102;SDS011;29769;42.178;24.742;2024-01-16T07:08:46;0.28;;;0.28;;
44102;SDS011;29769;42.178;24.742;2024-01-16T07:11:31;0.77;;;0.77;;
44102;SDS011;29769;42.178;24.742;2024-01-16T07:14:16;0.20;;;0.20;;
44102;SDS011;29769;42.178;24.742;2024-01-16T07:17:01;1.38;;;1.27;;
44102;SDS011;29769;42.178;24.742;2024-01-16T07:19:46;0.70;;;0.70;;
44102;SDS011;29769;42.178;24.742;2024-01-16T07:22:31;0.60;;;0.60;;
44102;SDS011;29769;42.178;24.742;2024-01-16T07:25:16;0.30;;;0.30;;
44102;SDS011;29769;42.178;24.742;2024-01-16T07:28:01;0.63;;;0.63;;
44102;SDS011;29769;42.178;24.742;2024-01-16T07:30:46;1.08;;;0.95;;
44102;SDS011;29769;42.178;24.742;2024-01-16T07:33:32;0.80;;;0.80;;
44102;SDS011;29769;42.178;24.742;2024-01-16T07:36:16;1.20;;;1.10;;
44102;SDS011;29769;42.178;24.742;2024-01-16T07:39:01;2.28;;;1.45;;
44102;SDS011;29769;42.178;24.742;2024-01-16T07:41:47;0.10;;;0.10;;
44102;SDS011;29769;42.178;24.742;2024-01-16T07:44:32;1.02;;;1.02;;
44102;SDS011;29769;42.178;24.742;2024-01-16T07:47:17;0.75;;;0.55;;
44102;SDS011;29769;42.178;24.742;2024-01-16T07:50:02;0.10;;;0.10;;
44102;SDS011;29769;42.178;24.742;2024-01-16T07:52:47;2.33;;;2.15;;
44102;SDS011;29769;42.178;24.742;2024-01-16T07:55:32;0.60;;;0.57;;
44102;SDS011;29769;42.178;24.742;2024-01-16T07:58:17;0.22;;;0.22;;
44102;SDS011;29769;42.178;24.742;2024-01-16T08:01:02;0.10;;;0.10;;
44102;SDS011;29769;42.178;24.742;2024-01-16T08:06:31;0.10;;;0.10;;
44102;SDS011;29769;42.178;24.742;2024-01-16T08:09:16;0.20;;;0.20;;
44102;SDS011;29769;42.178;24.742;2024-01-16T08:12:01;0.65;;;0.65;;
44102;SDS011;29769;42.178;24.742;2024-01-16T08:14:47;0.05;;;0.05;;
44102;SDS011;29769;42.178;24.742;2024-01-16T08:17:32;0.73;;;0.73;;
44102;SDS011;29769;42.178;24.742;2024-01-16T08:20:17;0.10;;;0.10;;
44102;SDS011;29769;42.178;24.742;2024-01-16T08:23:02;0.32;;;0.32;;
44102;SDS011;29769;42.178;24.742;2024-01-16T08:28:32;0.32;;;0.32;;
44102;SDS011;29769;42.178;24.742;2024-01-16T08:31:17;1.25;;;0.43;;
44102;SDS011;29769;42.178;24.742;2024-01-16T08:34:03;1.05;;;0.63;;
44102;SDS011;29769;42.178;24.742;2024-01-16T08:36:48;0.30;;;0.30;;
44102;SDS011;29769;42.178;24.742;2024-01-16T08:39:33;0.55;;;0.55;;
44102;SDS011;29769;42.178;24.742;2024-01-16T08:42:18;0.20;;;0.20;;
44102;SDS011;29769;42.178;24.742;2024-01-16T08:45:03;0.68;;;0.68;;
44102;SDS011;29769;42.178;24.742;2024-01-16T08:47:49;0.70;;;0.70;;
44102;SDS011;29769;42.178;24.742;2024-01-16T08:50:34;0.35;;;0.35;;
44102;SDS011;29769;42.178;24.742;2024-01-16T08:53:19;0.93;;;0.93;;
44102;SDS011;29769;42.178;24.742;2024-01-16T08:56:04;3.90;;;1.40;;
44102;SDS011;29769;42.178;24.742;2024-01-16T08:58:52;5.18;;;1.10;;
44102;SDS011;29769;42.178;24.742;2024-01-16T09:01:37;0.47;;;0.47;;
44102;SDS011;29769;42.178;24.742;2024-01-16T09:04:22;1.33;;;0.90;;
44102;SDS011;29769;42.178;24.742;2024-01-16T09:07:07;1.55;;;1.23;;
44102;SDS011;29769;42.178;24.742;2024-01-16T09:12:37;2.17;;;1.45;;
44102;SDS011;29769;42.178;24.742;2024-01-16T09:15:22;0.10;;;0.10;;
44102;SDS011;29769;42.178;24.742;2024-01-16T09:18:08;0.52;;;0.50;;
44102;SDS011;29769;42.178;24.742;2024-01-16T09:20:52;0.90;;;0.90;;
44102;SDS011;29769;42.178;24.742;2024-01-16T09:23:37;0.80;;;0.73;;
44102;SDS011;29769;42.178;24.742;2024-01-16T09:26:22;0.17;;;0.17;;
44102;SDS011;29769;42.178;24.742;2024-01-16T09:29:08;0.45;;;0.45;;
44102;SDS011;29769;42.178;24.742;2024-01-16T09:31:54;0.80;;;0.38;;
44102;SDS011;29769;42.178;24.742;2024-01-16T09:34:39;0.50;;;0.50;;
44102;SDS011;29769;42.178;24.742;2024-01-16T09:40:08;0.20;;;0.20;;
44102;SDS011;29769;42.178;24.742;2024-01-16T09:42:54;2.05;;;1.00;;
44102;SDS011;29769;42.178;24.742;2024-01-16T09:45:40;0.63;;;0.60;;
44102;SDS011;29769;42.178;24.742;2024-01-16T09:48:25;4.43;;;1.17;;
44102;SDS011;29769;42.178;24.742;2024-01-16T09:51:12;0.73;;;0.52;;
44102;SDS011;29769;42.178;24.742;2024-01-16T09:53:59;0.35;;;0.35;;
44102;SDS011;29769;42.178;24.742;2024-01-16T09:56:46;0.98;;;0.85;;
44102;SDS011;29769;42.178;24.742;2024-01-16T09:59:36;2.33;;;0.35;;
44102;SDS011;29769;42.178;24.742;2024-01-16T10:02:23;0.82;;;0.82;;
44102;SDS011;29769;42.178;24.742;2024-01-16T10:05:12;2.72;;;0.65;;
44102;SDS011;29769;42.178;24.742;2024-01-16T10:07:58;0.45;;;0.38;;
44102;SDS011;29769;42.178;24.742;2024-01-16T10:10:43;0.38;;;0.38;;
44102;SDS011;29769;42.178;24.742;2024-01-16T10:13:28;1.08;;;0.70;;
44102;SDS011;29769;42.178;24.742;2024-01-16T10:16:13;0.30;;;0.30;;
44102;SDS011;29769;42.178;24.742;2024-01-16T10:19:03;0.88;;;0.82;;
44102;SDS011;29769;42.178;24.742;2024-01-16T10:21:48;0.20;;;0.20;;
44102;SDS011;29769;42.178;24.742;2024-01-16T10:24:34;0.60;;;0.60;;
44102;SDS011;29769;42.178;24.742;2024-01-16T10:27:19;1.10;;;0.77;;
44102;SDS011;29769;42.178;24.742;2024-01-16T10:30:05;0.38;;;0.38;;
44102;SDS011;29769;42.178;24.742;2024-01-16T10:32:51;0.85;;;0.63;;
44102;SDS011;29769;42.178;24.742;2024-01-16T10:35:36;0.45;;;0.45;;
44102;SDS011;29769;42.178;24.742;2024-01-16T10:41:13;1.00;;;0.40;;
44102;SDS011;29769;42.178;24.742;2024-01-16T10:44:05;0.35;;;0.35;;
44102;SDS011;29769;42.178;24.742;2024-01-16T10:47:10;0.50;;;0.50;;
44102;SDS011;29769;42.178;24.742;2024-01-16T10:49:58;1.10;;;0.70;;
44102;SDS011;29769;42.178;24.742;2024-01-16T10:52:52;0.70;;;0.70;;
44102;SDS011;29769;42.178;24.742;2024-01-16T10:55:57;0.22;;;0.22;;
44102;SDS011;29769;42.178;24.742;2024-01-16T10:58:44;0.45;;;0.45;;
44102;SDS011;29769;42.178;24.742;2024-01-16T11:01:31;1.65;;;0.90;;
44102;SDS011;29769;42.178;24.742;2024-01-16T11:04:17;0.55;;;0.55;;
44102;SDS011;29769;42.178;24.742;2024-01-16T11:07:04;0.20;;;0.20;;
44102;SDS011;29769;42.178;24.742;2024-01-16T11:09:50;0.40;;;0.40;;
44102;SDS011;29769;42.178;24.742;2024-01-16T11:12:36;0.88;;;0.82;;
44102;SDS011;29769;42.178;24.742;2024-01-16T11:15:26;0.30;;;0.30;;
44102;SDS011;29769;42.178;24.742;2024-01-16T11:18:14;2.42;;;0.30;;
44102;SDS011;29769;42.178;24.742;2024-01-16T11:21:01;0.30;;;0.30;;
44102;SDS011;29769;42.178;24.742;2024-01-16T11:23:48;0.10;;;0.10;;
44102;SDS011;29769;42.178;24.742;2024-01-16T11:26:33;0.28;;;0.28;;
44102;SDS011;29769;42.178;24.742;2024-01-16T11:32:11;0.28;;;0.28;;
44102;SDS011;29769;42.178;24.742;2024-01-16T11:35:17;0.28;;;0.28;;
44102;SDS011;29769;42.178;24.742;2024-01-16T11:38:16;0.65;;;0.63;;
44102;SDS011;29769;42.178;24.742;2024-01-16T11:41:03;0.75;;;0.60;;
44102;SDS011;29769;42.178;24.742;2024-01-16T11:43:48;0.63;;;0.60;;
44102;SDS011;29769;42.178;24.742;2024-01-16T11:49:37;0.40;;;0.40;;
44102;SDS011;29769;42.178;24.742;2024-01-16T11:52:41;2.15;;;1.35;;
44102;SDS011;29769;42.178;24.742;2024-01-16T11:55:30;0.60;;;0.60;;
44102;SDS011;29769;42.178;24.742;2024-01-16T12:01:27;2.38;;;1.02;;
44102;SDS011;29769;42.178;24.742;2024-01-16T12:04:14;0.43;;;0.43;;
44102;SDS011;29769;42.178;24.742;2024-01-16T12:07:02;6.50;;;2.50;;
44102;SDS011;29769;42.178;24.742;2024-01-16T12:09:48;0.68;;;0.68;;
44102;SDS011;29769;42.178;24.742;2024-01-16T12:12:33;0.75;;;0.75;;
44102;SDS011;29769;42.178;24.742;2024-01-16T12:18:07;0.70;;;0.70;;
44102;SDS011;29769;42.178;24.742;2024-01-16T12:20:52;0.50;;;0.50;;
44102;SDS011;29769;42.178;24.742;2024-01-16T12:23:36;2.45;;;1.20;;
44102;SDS011;29769;42.178;24.742;2024-01-16T12:26:22;0.50;;;0.50;;
44102;SDS011;29769;42.178;24.742;2024-01-16T12:29:07;0.80;;;0.63;;
44102;SDS011;29769;42.178;24.742;2024-01-16T12:34:49;0.45;;;0.45;;
44102;SDS011;29769;42.178;24.742;2024-01-16T12:40:18;0.40;;;0.40;;
44102;SDS011;29769;42.178;24.742;2024-01-16T12:45:55;0.47;;;0.47;;
44102;SDS011;29769;42.178;24.742;2024-01-16T12:48:41;0.60;;;0.60;;
44102;SDS011;29769;42.178;24.742;2024-01-16T12:51:26;0.43;;;0.43;;
44102;SDS011;29769;42.178;24.742;2024-01-16T12:54:12;0.55;;;0.55;;
44102;SDS011;29769;42.178;24.742;2024-01-16T12:57:01;0.68;;;0.68;;
44102;SDS011;29769;42.178;24.742;2024-01-16T12:59:48;0.28;;;0.28;;
44102;SDS011;29769;42.178;24.742;2024-01-16T13:02:32;0.45;;;0.35;;
44102;SDS011;29769;42.178;24.742;2024-01-16T13:08:03;0.45;;;0.45;;
44102;SDS011;29769;42.178;24.742;2024-01-16T13:13:47;1.15;;;0.43;;
44102;SDS011;29769;42.178;24.742;2024-01-16T13:16:35;0.40;;;0.40;;
44102;SDS011;29769;42.178;24.742;2024-01-16T13:22:05;11.02;;;0.50;;
44102;SDS011;29769;42.178;24.742;2024-01-16T13:24:51;0.75;;;0.68;;
44102;SDS011;29769;42.178;24.742;2024-01-16T13:30:21;1.40;;;1.10;;
44102;SDS011;29769;42.178;24.742;2024-01-16T13:33:06;0.28;;;0.28;;
44102;SDS011;29769;42.178;24.742;2024-01-16T13:35:50;1.35;;;0.85;;
44102;SDS011;29769;42.178;24.742;2024-01-16T13:38:36;0.65;;;0.65;;
44102;SDS011;29769;42.178;24.742;2024-01-16T13:44:05;0.38;;;0.38;;
44102;SDS011;29769;42.178;24.742;2024-01-16T13:49:35;0.20;;;0.20;;
44102;SDS011;29769;42.178;24.742;2024-01-16T13:52:20;0.25;;;0.25;;
44102;SDS011;29769;42.178;24.742;2024-01-16T13:55:06;0.73;;;0.63;;
44102;SDS011;29769;42.178;24.742;2024-01-16T13:57:51;1.35;;;0.50;;
44102;SDS011;29769;42.178;24.742;2024-01-16T14:00:36;0.20;;;0.20;;
44102;SDS011;29769;42.178;24.742;2024-01-16T14:03:21;5.43;;;0.70;;
44102;SDS011;29769;42.178;24.742;2024-01-16T14:06:06;0.22;;;0.22;;
44102;SDS011;29769;42.178;24.742;2024-01-16T14:08:51;0.38;;;0.38;;
44102;SDS011;29769;42.178;24.742;2024-01-16T14:11:36;0.30;;;0.30;;
44102;SDS011;29769;42.178;24.742;2024-01-16T14:14:22;0.52;;;0.52;;
44102;SDS011;29769;42.178;24.742;2024-01-16T14:17:07;5.88;;;1.05;;
44102;SDS011;29769;42.178;24.742;2024-01-16T14:19:52;0.25;;;0.25;;
44102;SDS011;29769;42.178;24.742;2024-01-16T14:22:38;0.57;;;0.57;;
44102;SDS011;29769;42.178;24.742;2024-01-16T14:25:24;0.17;;;0.17;;
44102;SDS011;29769;42.178;24.742;2024-01-16T14:28:09;0.50;;;0.50;;
44102;SDS011;29769;42.178;24.742;2024-01-16T14:30:55;1.35;;;0.77;;
44102;SDS011;29769;42.178;24.742;2024-01-16T14:33:40;0.40;;;0.40;;
44102;SDS011;29769;42.178;24.742;2024-01-16T14:36:25;0.10;;;0.10;;
44102;SDS011;29769;42.178;24.742;2024-01-16T14:39:10;0.17;;;0.17;;
44102;SDS011;29769;42.178;24.742;2024-01-16T14:41:57;0.45;;;0.45;;
44102;SDS011;29769;42.178;24.742;2024-01-16T14:44:46;0.57;;;0.57;;
44102;SDS011;29769;42.178;24.742;2024-01-16T14:50:17;2.75;;;0.85;;
44102;SDS011;29769;42.178;24.742;2024-01-16T14:53:02;0.93;;;0.70;;
44102;SDS011;29769;42.178;24.742;2024-01-16T14:55:49;0.70;;;0.63;;
44102;SDS011;29769;42.178;24.742;2024-01-16T14:58:34;1.35;;;0.90;;
44102;SDS011;29769;42.178;24.742;2024-01-16T15:04:03;0.40;;;0.40;;
44102;SDS011;29769;42.178;24.742;2024-01-16T15:06:50;0.30;;;0.30;;
44102;SDS011;29769;42.178;24.742;2024-01-16T15:09:37;0.38;;;0.13;;
44102;SDS011;29769;42.178;24.742;2024-01-16T15:12:24;0.40;;;0.40;;
44102;SDS011;29769;42.178;24.742;2024-01-16T15:15:09;1.33;;;0.85;;
44102;SDS011;29769;42.178;24.742;2024-01-16T15:17:57;0.20;;;0.20;;
44102;SDS011;29769;42.178;24.742;2024-01-16T15:20:42;0.15;;;0.15;;
44102;SDS011;29769;42.178;24.742;2024-01-16T15:23:27;0.10;;;0.10;;
44102;SDS011;29769;42.178;24.742;2024-01-16T15:26:12;1.23;;;0.50;;
44102;SDS011;29769;42.178;24.742;2024-01-16T15:29:03;0.50;;;0.40;;
44102;SDS011;29769;42.178;24.742;2024-01-16T15:31:49;0.20;;;0.20;;
44102;SDS011;29769;42.178;24.742;2024-01-16T15:34:36;1.13;;;0.63;;
44102;SDS011;29769;42.178;24.742;2024-01-16T15:37:22;1.23;;;0.60;;
44102;SDS011;29769;42.178;24.742;2024-01-16T15:40:07;0.30;;;0.30;;
44102;SDS011;29769;42.178;24.742;2024-01-16T15:42:53;0.40;;;0.40;;
44102;SDS011;29769;42.178;24.742;2024-01-16T15:45:39;1.05;;;0.38;;
44102;SDS011;29769;42.178;24.742;2024-01-16T15:48:24;1.63;;;0.63;;
44102;SDS011;29769;42.178;24.742;2024-01-16T15:51:09;3.55;;;1.40;;
44102;SDS011;29769;42.178;24.742;2024-01-16T15:53:55;0.80;;;0.80;;
44102;SDS011;29769;42.178;24.742;2024-01-16T15:56:40;0.57;;;0.57;;
44102;SDS011;29769;42.178;24.742;2024-01-16T15:59:25;0.20;;;0.20;;
44102;SDS011;29769;42.178;24.742;2024-01-16T16:02:10;0.00;;;0.00;;
44102;SDS011;29769;42.178;24.742;2024-01-16T16:04:55;0.45;;;0.45;;
44102;SDS011;29769;42.178;24.742;2024-01-16T16:07:40;0.40;;;0.32;;
44102;SDS011;29769;42.178;24.742;2024-01-16T16:13:11;0.82;;;0.82;;
44102;SDS011;29769;42.178;24.742;2024-01-16T16:15:56;0.10;;;0.10;;
44102;SDS011;29769;42.178;24.742;2024-01-16T16:18:41;0.20;;;0.20;;
44102;SDS011;29769;42.178;24.742;2024-01-16T16:21:26;0.13;;;0.13;;
44102;SDS011;29769;42.178;24.742;2024-01-16T16:24:11;0.10;;;0.10;;
44102;SDS011;29769;42.178;24.742;2024-01-16T16:26:56;1.05;;;0.65;;
44102;SDS011;29769;42.178;24.742;2024-01-16T16:29:42;0.10;;;0.10;;
44102;SDS011;29769;42.178;24.742;2024-01-16T16:32:27;2.20;;;0.38;;
44102;SDS011;29769;42.178;24.742;2024-01-16T16:35:12;0.35;;;0.35;;
44102;SDS011;29769;42.178;24.742;2024-01-16T16:37:57;0.50;;;0.50;;
44102;SDS011;29769;42.178;24.742;2024-01-16T16:40:42;0.40;;;0.40;;
44102;SDS011;29769;42.178;24.742;2024-01-16T16:43:27;0.40;;;0.40;;
44102;SDS011;29769;42.178;24.742;2024-01-16T16:46:16;0.88;;;0.45;;
44102;SDS011;29769;42.178;24.742;2024-01-16T16:49:01;0.30;;;0.30;;
44102;SDS011;29769;42.178;24.742;2024-01-16T16:51:46;3.90;;;1.23;;
44102;SDS011;29769;42.178;24.742;2024-01-16T16:54:31;0.90;;;0.90;;
44102;SDS011;29769;42.178;24.742;2024-01-16T16:57:17;6.60;;;0.55;;
44102;SDS011;29769;42.178;24.742;2024-01-16T17:00:02;0.45;;;0.45;;
44102;SDS011;29769;42.178;24.742;2024-01-16T17:02:49;0.60;;;0.60;;
44102;SDS011;29769;42.178;24.742;2024-01-16T17:05:34;1.13;;;0.82;;
44102;SDS011;29769;42.178;24.742;2024-01-16T17:08:19;2.92;;;1.95;;
44102;SDS011;29769;42.178;24.742;2024-01-16T17:11:05;0.40;;;0.40;;
44102;SDS011;29769;42.178;24.742;2024-01-16T17:13:51;0.10;;;0.10;;
44102;SDS011;29769;42.178;24.742;2024-01-16T17:16:36;1.42;;;0.75;;
44102;SDS011;29769;42.178;24.742;2024-01-16T17:19:21;3.00;;;0.73;;
44102;SDS011;29769;42.178;24.742;2024-01-16T17:22:06;0.63;;;0.63;;
44102;SDS011;29769;42.178;24.742;2024-01-16T17:24:52;3.20;;;0.73;;
44102;SDS011;29769;42.178;24.742;2024-01-16T17:27:37;0.20;;;0.20;;